createdAt,value
2019-03-30T00:01:01.161Z,12.57
2019-03-30T00:06:04.264Z,10.37
2019-03-30T00:11:07.360Z,13.06
2019-03-30T00:16:10.268Z,12.17
2019-03-30T00:21:13.255Z,13.51
2019-03-30T00:26:16.193Z,11.98
2019-03-30T00:31:19.061Z,9.23
2019-03-30T00:36:21.942Z,16.77
2019-03-30T00:41:25.205Z,10.38
2019-03-30T00:46:28.209Z,10.90
2019-03-30T00:51:31.094Z,13.97
2019-03-30T00:56:34.031Z,11.96
2019-03-30T01:01:36.827Z,12.48
2019-03-30T01:06:39.897Z,14.50
2019-03-30T01:11:42.873Z,11.40
2019-03-30T01:16:45.716Z,11.39
2019-03-30T01:21:48.630Z,11.22
2019-03-30T01:26:51.358Z,10.66
2019-03-30T01:31:54.337Z,15.62
2019-03-30T01:36:57.492Z,10.98
2019-03-30T01:42:00.441Z,12.51
2019-03-30T01:47:03.371Z,9.41
2019-03-30T01:52:06.331Z,10.76
2019-03-30T01:57:09.284Z,14.05
2019-03-30T02:02:12.244Z,11.28
2019-03-30T02:07:15.070Z,14.02
2019-03-30T02:12:18.160Z,10.63
2019-03-30T02:17:21.087Z,9.58
2019-03-30T02:22:23.928Z,10.70
2019-03-30T02:27:27.059Z,12.10
2019-03-30T02:32:29.873Z,10.77
2019-03-30T02:37:33.065Z,10.01
2019-03-30T02:42:36.095Z,12.46
2019-03-30T02:47:38.947Z,8.60
2019-03-30T02:52:41.911Z,9.14
2019-03-30T02:57:44.938Z,8.74
2019-03-30T03:02:47.893Z,8.82
2019-03-30T03:07:50.837Z,10.39
2019-03-30T03:12:53.746Z,6.69
2019-03-30T03:17:55.970Z,8.27
2019-03-30T03:22:58.845Z,8.21
2019-03-30T03:28:01.666Z,9.22
2019-03-30T03:33:04.321Z,6.40
2019-03-30T03:38:07.364Z,6.75
2019-03-30T03:43:10.178Z,6.85
2019-03-30T03:48:13.249Z,9.10
2019-03-30T03:53:14.483Z,5.62
2019-03-30T03:58:17.455Z,7.93
2019-03-30T04:03:20.416Z,7.27
2019-03-30T04:08:23.342Z,7.75
2019-03-30T04:13:25.993Z,6.98
2019-03-30T04:18:28.815Z,6.12
2019-03-30T04:23:31.694Z,7.37
2019-03-30T04:28:34.541Z,7.11
2019-03-30T04:33:37.592Z,7.06
2019-03-30T04:38:40.476Z,7.66
2019-03-30T04:43:43.234Z,5.64
2019-03-30T04:48:46.146Z,5.71
2019-03-30T04:53:49.005Z,6.66
2019-03-30T04:58:51.845Z,7.04
2019-03-30T05:03:54.713Z,6.63
2019-03-30T05:08:57.608Z,5.38
2019-03-30T05:14:00.398Z,5.98
2019-03-30T05:19:03.306Z,8.01
2019-03-30T05:24:06.440Z,5.62
2019-03-30T05:29:09.748Z,7.37
2019-03-30T05:34:12.750Z,6.14
2019-03-30T05:39:15.575Z,6.14
2019-03-30T05:44:18.381Z,5.84
2019-03-30T05:49:21.299Z,6.77
2019-03-30T05:54:24.354Z,4.25
2019-03-30T05:59:27.272Z,9.36
2019-03-30T06:04:30.220Z,4.77
2019-03-30T06:09:31.814Z,7.13
2019-03-30T06:14:33.700Z,5.87
2019-03-30T06:19:36.598Z,4.76
2019-03-30T06:24:38.423Z,5.97
2019-03-30T06:29:41.137Z,5.31
2019-03-30T06:34:42.957Z,4.37
2019-03-30T06:39:45.737Z,6.10
2019-03-30T06:44:49.431Z,4.90
2019-03-30T06:49:52.316Z,7.54
2019-03-30T06:54:55.438Z,5.28
2019-03-30T06:59:58.459Z,5.80
2019-03-30T07:05:01.301Z,4.81
2019-03-30T07:10:04.739Z,3.88
2019-03-30T07:15:10.211Z,4.76
2019-03-30T07:20:11.853Z,6.73
2019-03-30T07:25:13.626Z,5.49
2019-03-30T07:30:16.925Z,8.65
2019-03-30T07:35:20.257Z,4.75
2019-03-30T07:40:23.311Z,4.18
2019-03-30T07:45:24.916Z,4.95
2019-03-30T07:50:26.460Z,7.33
2019-03-30T07:55:28.232Z,5.23
2019-03-30T08:00:45.819Z,5.76
2019-03-30T08:05:38.920Z,6.90
2019-03-30T08:10:41.903Z,6.05
2019-03-30T08:15:45.029Z,5.73
2019-03-30T08:20:48.267Z,5.11
2019-03-30T08:25:51.372Z,8.38
2019-03-30T08:30:54.663Z,7.65
2019-03-30T08:35:57.676Z,10.48
2019-03-30T08:41:00.773Z,5.69
2019-03-30T08:46:03.560Z,5.11
2019-03-30T08:51:06.668Z,4.51
2019-03-30T08:56:09.667Z,5.28
2019-03-30T09:01:13.179Z,4.55
2019-03-30T09:07:47.420Z,3.77
2019-03-30T09:11:20.336Z,4.43
2019-03-30T09:16:23.282Z,4.58
2019-03-30T09:21:26.210Z,6.48
2019-03-30T09:26:29.239Z,5.24
2019-03-30T09:31:32.449Z,4.80
2019-03-30T09:36:35.516Z,3.67
2019-03-30T09:41:38.547Z,2.17
2019-03-30T09:46:41.874Z,3.27
2019-03-30T09:51:45.521Z,2.40
2019-03-30T09:56:48.661Z,2.65
2019-03-30T10:01:53.405Z,1.73
2019-03-30T10:06:56.064Z,2.27
2019-03-30T10:11:59.054Z,5.07
2019-03-30T10:17:01.366Z,3.85
2019-03-30T10:22:04.582Z,5.01
2019-03-30T10:27:08.130Z,3.48
2019-03-30T10:32:09.983Z,5.89
2019-03-30T10:37:11.777Z,2.77
2019-03-30T10:42:14.810Z,2.43
2019-03-30T10:47:18.498Z,5.36
2019-03-30T10:52:21.715Z,4.03
2019-03-30T10:57:24.686Z,3.32
2019-03-30T11:02:42.464Z,3.48
2019-03-30T11:07:35.481Z,3.73
2019-03-30T11:12:38.637Z,3.97
2019-03-30T11:17:41.709Z,3.71
2019-03-30T11:22:44.604Z,4.27
2019-03-30T11:27:47.515Z,4.59
2019-03-30T11:32:50.277Z,4.33
2019-03-30T11:37:53.214Z,4.43
2019-03-30T11:42:56.115Z,5.14
2019-03-30T11:47:58.972Z,6.82
2019-03-30T11:53:01.813Z,8.85
2019-03-30T11:58:04.890Z,13.11
2019-03-30T12:03:07.754Z,6.97
2019-03-30T12:08:10.738Z,11.33
2019-03-30T12:13:13.896Z,11.77
2019-03-30T12:18:17.070Z,13.00
2019-03-30T12:23:19.866Z,21.19
2019-03-30T12:28:22.952Z,15.25
2019-03-30T12:33:25.667Z,16.76
2019-03-30T12:38:28.295Z,21.06
2019-03-30T12:43:29.605Z,17.91
2019-03-30T12:48:31.149Z,22.11
2019-03-30T12:53:34.062Z,17.92
2019-03-30T12:58:36.902Z,25.82
2019-03-30T13:03:54.288Z,22.34
2019-03-30T13:08:47.045Z,29.01
2019-03-30T13:13:50.138Z,11.83
2019-03-30T13:18:53.050Z,18.54
2019-03-30T13:23:56.938Z,19.04
2019-03-30T13:29:00.218Z,5.09
2019-03-30T13:34:03.177Z,1.69
2019-03-30T13:39:06.127Z,2.16
2019-03-30T13:44:09.151Z,2.77
2019-03-30T13:49:10.693Z,3.74
2019-03-30T13:54:13.966Z,4.69
2019-03-30T13:59:16.847Z,2.85
2019-03-30T14:04:18.622Z,3.61
2019-03-30T14:09:22.133Z,0.94
2019-03-30T14:14:24.434Z,1.91
2019-03-30T14:19:27.175Z,3.74
2019-03-30T14:25:44.433Z,1.69
2019-03-30T14:30:47.754Z,1.57
2019-03-30T14:35:50.753Z,9.37
2019-03-30T14:40:53.829Z,4.70
2019-03-30T14:45:56.864Z,1.11
2019-03-30T14:50:59.653Z,1.67
2019-03-30T14:56:02.776Z,1.73
2019-03-30T15:01:05.819Z,1.18
2019-03-30T15:06:08.726Z,3.80
2019-03-30T15:11:11.496Z,4.18
2019-03-30T15:16:14.763Z,3.29
2019-03-30T15:21:17.474Z,3.75
2019-03-30T15:26:22.056Z,4.40
2019-03-30T15:31:22.994Z,3.62
2019-03-30T15:36:25.917Z,3.60
2019-03-30T15:41:29.201Z,2.90
2019-03-30T15:46:32.231Z,2.70
2019-03-30T15:51:37.535Z,2.22
2019-03-30T15:56:37.914Z,2.07
2019-03-30T16:01:40.660Z,1.34
2019-03-30T16:06:44.001Z,1.53
2019-03-30T16:11:46.807Z,1.27
2019-03-30T16:16:49.519Z,1.82
2019-03-30T16:21:52.238Z,1.32
2019-03-30T16:26:55.388Z,1.09
2019-03-30T16:31:58.332Z,0.99
2019-03-30T16:37:01.605Z,0.95
2019-03-30T16:42:04.696Z,0.64
2019-03-30T16:47:07.819Z,0.77
2019-03-30T16:52:10.702Z,0.77
2019-03-30T16:57:13.931Z,1.10
2019-03-30T17:02:17.144Z,1.38
2019-03-30T17:07:18.569Z,2.10
2019-03-30T17:12:21.725Z,2.01
2019-03-30T17:17:24.708Z,1.01
2019-03-30T17:22:27.688Z,1.71
2019-03-30T17:27:30.911Z,0.80
2019-03-30T17:32:34.014Z,1.39
2019-03-30T17:37:37.746Z,0.65
2019-03-30T17:42:40.849Z,1.68
2019-03-30T17:47:43.866Z,0.95
2019-03-30T17:52:46.566Z,1.27
2019-03-30T17:57:49.695Z,1.28
2019-03-30T18:02:52.913Z,1.11
2019-03-30T18:07:55.944Z,2.21
2019-03-30T18:12:57.931Z,1.67
2019-03-30T18:18:00.911Z,3.81
2019-03-30T18:23:03.931Z,1.45
2019-03-30T18:28:07.015Z,1.27
2019-03-30T18:33:10.063Z,1.33
2019-03-30T18:38:13.045Z,5.48
2019-03-30T18:43:14.142Z,1.14
2019-03-30T18:48:17.055Z,0.81
2019-03-30T18:53:19.893Z,1.39
2019-03-30T18:58:23.057Z,0.92
2019-03-30T19:03:26.530Z,1.84
2019-03-30T19:08:29.325Z,0.66
2019-03-30T19:13:32.299Z,1.60
2019-03-30T19:18:35.272Z,0.70
2019-03-30T19:23:38.492Z,0.68
2019-03-30T19:28:55.278Z,0.62
2019-03-30T19:33:44.020Z,1.21
2019-03-30T19:38:46.963Z,1.10
2019-03-30T19:43:50.103Z,0.97
2019-03-30T19:48:53.193Z,0.61
2019-03-30T19:53:59.711Z,0.57
2019-03-30T19:59:10.044Z,0.58
2019-03-30T20:03:59.799Z,0.55
2019-03-30T20:09:02.919Z,0.58
2019-03-30T20:14:05.660Z,0.96
2019-03-30T20:19:12.511Z,0.97
2019-03-30T20:24:11.746Z,0.62
2019-03-30T20:29:25.134Z,0.66
2019-03-30T20:34:17.295Z,0.95
2019-03-30T20:39:20.433Z,1.20
2019-03-30T20:44:23.549Z,1.51
2019-03-30T20:49:27.560Z,0.86
2019-03-30T20:54:30.562Z,2.03
2019-03-30T20:59:40.022Z,1.13
2019-03-30T21:04:39.285Z,0.96
2019-03-30T21:09:42.396Z,0.68
2019-03-30T21:15:58.444Z,1.57
2019-03-30T21:21:02.352Z,1.13
2019-03-30T21:26:05.550Z,1.19
2019-03-30T21:31:08.493Z,1.09
2019-03-30T21:36:11.315Z,1.44
2019-03-30T21:41:14.168Z,2.36
2019-03-30T21:46:17.198Z,3.01
2019-03-30T21:51:20.127Z,1.93
2019-03-30T21:56:23.232Z,4.62
2019-03-30T22:01:26.117Z,4.26
2019-03-30T22:06:29.297Z,0.95
2019-03-30T22:11:32.254Z,1.37
2019-03-30T22:16:35.033Z,1.68
2019-03-30T22:21:38.002Z,1.59
2019-03-30T22:26:41.031Z,3.15
2019-03-30T22:31:44.034Z,1.83
2019-03-30T22:36:46.916Z,2.80
2019-03-30T22:41:49.775Z,1.54
2019-03-30T22:46:52.948Z,3.36
2019-03-30T22:51:55.896Z,1.97
2019-03-30T22:56:58.932Z,1.69
2019-03-30T23:02:01.661Z,2.02
2019-03-30T23:07:04.681Z,3.15
2019-03-30T23:12:07.589Z,1.56
2019-03-30T23:17:10.706Z,1.94
2019-03-30T23:22:13.695Z,2.12
2019-03-30T23:27:16.614Z,1.99
2019-03-30T23:32:19.656Z,1.73
2019-03-30T23:37:22.657Z,2.46
2019-03-30T23:42:25.700Z,1.51
2019-03-30T23:47:28.563Z,1.49
2019-03-30T23:52:31.720Z,1.52
2019-03-30T23:57:34.572Z,1.17
